RFF001 ULPB-ULPB
Flight info
| Callsign | RFF001 |
|---|---|
| Flight time | N/A |
| Altitude | 20000 |
| Route | ULPB ULPB |
| Aircraft | SU27/M-V/N |
Departure
| Time | 2026-04-20 14:53 |
|---|---|
| Airport | Petrozavodsk Airport (ULPB) |
Arrival
| Time | N/A |
|---|---|
| Airport | Petrozavodsk Airport (ULPB) |
| Time | Latitude | Longitude | Altitude | Speed | Heading |
|---|---|---|---|---|---|
| 2026-04-20 14:29 | 63.26153 | 31.65780 | 15738 ft | 391 kts | 346° |
| 2026-04-20 14:29 | 63.28782 | 31.63741 | 15580 ft | 415 kts | 328° |
| 2026-04-20 14:29 | 63.30935 | 31.59140 | 14963 ft | 443 kts | 314° |
| 2026-04-20 14:30 | 63.32813 | 31.53717 | 15199 ft | 433 kts | 301° |
| 2026-04-20 14:30 | 63.33517 | 31.47494 | 15378 ft | 408 kts | 278° |
| 2026-04-20 14:30 | 63.33715 | 31.41341 | 15331 ft | 390 kts | 278° |
| 2026-04-20 14:30 | 63.33954 | 31.35192 | 15293 ft | 445 kts | 279° |
| 2026-04-20 14:31 | 63.34454 | 31.27143 | 15219 ft | 610 kts | 284° |
| 2026-04-20 14:31 | 63.35596 | 31.16911 | 15181 ft | 738 kts | 286° |
| 2026-04-20 14:31 | 63.36885 | 31.05625 | 18074 ft | 772 kts | 286° |
| 2026-04-20 14:31 | 63.38246 | 30.93567 | 18789 ft | 823 kts | 286° |
| 2026-04-20 14:32 | 63.39484 | 30.82737 | 18769 ft | 744 kts | 291° |
| 2026-04-20 14:32 | 63.41495 | 30.71563 | 18816 ft | 736 kts | 295° |
| 2026-04-20 14:32 | 63.42975 | 30.64085 | 18646 ft | 392 kts | 301° |
| 2026-04-20 14:32 | 63.44092 | 30.59122 | 18409 ft | 392 kts | 301° |
| 2026-04-20 14:33 | 63.45661 | 30.52533 | 18298 ft | 572 kts | 301° |
| 2026-04-20 14:33 | 63.48006 | 30.44108 | 18007 ft | 705 kts | 311° |
| 2026-04-20 14:33 | 63.51973 | 30.36868 | 18244 ft | 773 kts | 325° |
| 2026-04-20 14:33 | 63.56473 | 30.29427 | 19009 ft | 829 kts | 325° |
| 2026-04-20 14:34 | 63.61256 | 30.21568 | 19814 ft | 875 kts | 326° |
| 2026-04-20 14:34 | 63.65714 | 30.14344 | 20413 ft | 690 kts | 333° |
| 2026-04-20 14:34 | 63.69738 | 30.11378 | 19738 ft | 558 kts | 4° |
| 2026-04-20 14:34 | 63.73036 | 30.14257 | 18884 ft | 488 kts | 45° |
| 2026-04-20 14:35 | 63.74384 | 30.20711 | 18057 ft | 445 kts | 87° |
| 2026-04-20 14:35 | 63.73440 | 30.26935 | 17515 ft | 415 kts | 128° |
| 2026-04-20 14:35 | 63.71071 | 30.30079 | 17184 ft | 390 kts | 178° |
| 2026-04-20 14:35 | 63.68753 | 30.28515 | 18119 ft | 320 kts | 217° |
| 2026-04-20 14:36 | 63.67546 | 30.24812 | 18075 ft | 278 kts | 274° |
| 2026-04-20 14:36 | 63.68091 | 30.21007 | 18077 ft | 254 kts | 327° |
| 2026-04-20 14:36 | 63.69763 | 30.19962 | 18090 ft | 273 kts | 13° |
| 2026-04-20 14:36 | 63.71533 | 30.22096 | 18082 ft | 316 kts | 47° |
| 2026-04-20 14:37 | 63.72751 | 30.26795 | 18043 ft | 404 kts | 66° |
| 2026-04-20 14:37 | 63.73482 | 30.34235 | 18026 ft | 579 kts | 87° |
| 2026-04-20 14:37 | 63.72566 | 30.44222 | 17704 ft | 722 kts | 116° |
| 2026-04-20 14:37 | 63.69039 | 30.53212 | 17465 ft | 819 kts | 145° |
| 2026-04-20 14:38 | 63.63937 | 30.57496 | 16983 ft | 758 kts | 180° |
| 2026-04-20 14:38 | 63.59447 | 30.53234 | 16367 ft | 688 kts | 232° |
| 2026-04-20 14:38 | 63.58094 | 30.43699 | 16513 ft | 632 kts | 265° |
| 2026-04-20 14:38 | 63.57605 | 30.34191 | 18178 ft | 600 kts | 267° |
| 2026-04-20 14:39 | 63.57266 | 30.24438 | 20318 ft | 682 kts | 268° |
| 2026-04-20 14:39 | 63.57469 | 30.13167 | 20245 ft | 763 kts | 286° |
| 2026-04-20 14:39 | 63.61577 | 30.08846 | 19220 ft | 788 kts | 10° |
| 2026-04-20 14:39 | 63.66875 | 30.11179 | 17947 ft | 726 kts | 13° |
| 2026-04-20 14:40 | 63.71449 | 30.13520 | 16690 ft | 629 kts | 11° |
| 2026-04-20 14:40 | 63.74691 | 30.18658 | 16363 ft | 580 kts | 61° |
| 2026-04-20 14:40 | 63.75777 | 30.27626 | 14849 ft | 619 kts | 87° |
| 2026-04-20 14:40 | 63.75457 | 30.37819 | 14817 ft | 686 kts | 93° |
| 2026-04-20 14:41 | 63.74124 | 30.48414 | 17109 ft | 743 kts | 111° |
| 2026-04-20 14:41 | 63.72101 | 30.59544 | 19468 ft | 786 kts | 109° |
| 2026-04-20 14:41 | 63.70091 | 30.71304 | 21796 ft | 821 kts | 108° |
| 2026-04-20 14:41 | 63.68015 | 30.83806 | 22036 ft | 881 kts | 108° |
| 2026-04-20 14:42 | 63.65942 | 30.95476 | 21881 ft | 717 kts | 110° |
| 2026-04-20 14:42 | 63.64122 | 31.04774 | 21598 ft | 594 kts | 111° |
| 2026-04-20 14:42 | 63.61886 | 31.11640 | 21219 ft | 525 kts | 143° |
| 2026-04-20 14:42 | 63.59279 | 31.16688 | 20843 ft | 466 kts | 127° |
| 2026-04-20 14:43 | 63.57445 | 31.22175 | 20495 ft | 420 kts | 121° |
| 2026-04-20 14:43 | 63.55695 | 31.27125 | 20151 ft | 392 kts | 126° |
| 2026-04-20 14:43 | 63.53899 | 31.31557 | 19816 ft | 402 kts | 128° |
| 2026-04-20 14:43 | 63.51612 | 31.36883 | 19707 ft | 551 kts | 130° |
| 2026-04-20 14:44 | 63.48605 | 31.43993 | 19874 ft | 692 kts | 130° |
| 2026-04-20 14:44 | 63.45176 | 31.52526 | 20083 ft | 779 kts | 129° |
| 2026-04-20 14:44 | 63.41873 | 31.60882 | 20191 ft | 645 kts | 128° |
| 2026-04-20 14:44 | 63.38737 | 31.66904 | 20189 ft | 562 kts | 142° |
| 2026-04-20 14:45 | 63.35726 | 31.71644 | 20215 ft | 497 kts | 140° |
| 2026-04-20 14:45 | 63.33126 | 31.76050 | 20229 ft | 443 kts | 137° |
| 2026-04-20 14:45 | 63.30864 | 31.80205 | 20241 ft | 401 kts | 134° |
| 2026-04-20 14:45 | 63.28893 | 31.84161 | 20258 ft | 363 kts | 130° |
| 2026-04-20 14:46 | 63.27135 | 31.87821 | 20280 ft | 331 kts | 132° |
| 2026-04-20 14:46 | 63.25444 | 31.91002 | 20302 ft | 307 kts | 135° |
| 2026-04-20 14:46 | 63.23775 | 31.93792 | 20338 ft | 315 kts | 137° |
| 2026-04-20 14:46 | 63.21639 | 31.97188 | 20372 ft | 451 kts | 140° |
| 2026-04-20 14:47 | 63.18602 | 32.01938 | 20381 ft | 620 kts | 142° |
| 2026-04-20 14:47 | 63.14676 | 32.07929 | 20390 ft | 738 kts | 143° |
| 2026-04-20 14:47 | 63.10162 | 32.14588 | 20442 ft | 820 kts | 144° |
| 2026-04-20 14:48 | 62.99771 | 32.29245 | 20547 ft | 952 kts | 143° |
| 2026-04-20 14:48 | 62.94213 | 32.38032 | 20636 ft | 1015 kts | 140° |
| 2026-04-20 14:48 | 62.88609 | 32.47876 | 20669 ft | 1046 kts | 137° |
| 2026-04-20 14:48 | 62.83546 | 32.57579 | 20605 ft | 888 kts | 134° |
| 2026-04-20 14:49 | 62.79532 | 32.66076 | 20604 ft | 727 kts | 130° |
| 2026-04-20 14:49 | 62.76416 | 32.73582 | 20666 ft | 618 kts | 127° |
| 2026-04-20 14:49 | 62.73748 | 32.80353 | 20664 ft | 563 kts | 126° |
| 2026-04-20 14:49 | 62.71298 | 32.86601 | 20672 ft | 523 kts | 126° |
| 2026-04-20 14:50 | 62.68975 | 32.92391 | 20666 ft | 492 kts | 126° |
| 2026-04-20 14:50 | 62.66760 | 32.97778 | 20652 ft | 465 kts | 127° |
| 2026-04-20 14:50 | 62.64632 | 33.02844 | 20636 ft | 442 kts | 127° |
| 2026-04-20 14:50 | 62.62501 | 33.07883 | 20641 ft | 497 kts | 127° |
| 2026-04-20 14:51 | 62.59876 | 33.14306 | 20617 ft | 644 kts | 127° |
| 2026-04-20 14:51 | 62.56568 | 33.22046 | 20593 ft | 749 kts | 134° |
| 2026-04-20 14:51 | 62.52183 | 33.29234 | 20647 ft | 835 kts | 146° |
| 2026-04-20 14:51 | 62.46809 | 33.35283 | 20712 ft | 905 kts | 154° |
| 2026-04-20 14:52 | 62.40720 | 33.40507 | 20781 ft | 978 kts | 159° |
| 2026-04-20 14:52 | 62.33923 | 33.44478 | 20760 ft | 1043 kts | 168° |
| 2026-04-20 14:52 | 62.26623 | 33.46637 | 20852 ft | 1071 kts | 172° |
| 2026-04-20 14:52 | 62.19164 | 33.48168 | 20828 ft | 1082 kts | 173° |
| 2026-04-20 14:53 | 62.11641 | 33.49479 | 20823 ft | 1087 kts | 174° |
| 2026-04-20 14:53 | 62.04669 | 33.50571 | 20699 ft | 685 kts | 174° |
| 2026-04-20 14:53 | 62.01496 | 33.50797 | 20610 ft | 311 kts | 174° |
| 2026-04-20 14:53 | 61.99762 | 33.50705 | 20506 ft | 208 kts | 174° |
| 2026-04-20 14:54 | 61.98211 | 33.50572 | 20079 ft | 255 kts | 174° |
| 2026-04-20 14:54 | 61.96240 | 33.50526 | 19479 ft | 308 kts | 174° |
| 2026-04-20 14:54 | 61.93779 | 33.50560 | 16979 ft | 396 kts | 177° |
| 2026-04-20 14:54 | 61.90802 | 33.50024 | 14658 ft | 460 kts | 189° |
| 2026-04-20 14:55 | 61.87620 | 33.48265 | 12338 ft | 488 kts | 195° |
| 2026-04-20 14:55 | 61.84435 | 33.46097 | 10074 ft | 474 kts | 195° |
| 2026-04-20 14:55 | 61.81311 | 33.44203 | 7706 ft | 460 kts | 190° |
| 2026-04-20 14:55 | 61.78241 | 33.44053 | 6697 ft | 419 kts | 166° |
| 2026-04-20 14:56 | 61.75689 | 33.45965 | 6746 ft | 365 kts | 146° |
| 2026-04-20 14:56 | 61.73824 | 33.49064 | 6808 ft | 322 kts | 131° |
| 2026-04-20 14:56 | 61.72432 | 33.52410 | 6884 ft | 288 kts | 124° |
| 2026-04-20 14:56 | 61.71232 | 33.55520 | 6916 ft | 259 kts | 125° |
| 2026-04-20 14:57 | 61.70143 | 33.58293 | 6941 ft | 234 kts | 125° |
| 2026-04-20 14:57 | 61.69133 | 33.60825 | 6899 ft | 219 kts | 124° |
| 2026-04-20 14:57 | 61.68346 | 33.63813 | 6959 ft | 298 kts | 109° |
| 2026-04-20 14:57 | 61.67300 | 33.69381 | 6900 ft | 522 kts | 109° |
| 2026-04-20 14:58 | 61.66448 | 33.74122 | 6909 ft | 484 kts | 109° |